首页
METAR-TAF:

METAR-TAF

机场 :

尼诺伊·阿基诺国际机场

马尼拉, 菲律宾

纬度: 14-31N, 经度: 121-00E, 海拔: 14米

当前天气观测

该预报发布于23分钟前的05:00 UTC
风速10节,风向,在东转东北东南之间变化
温度 33°C
湿度 49%
气压 1011 hPa
能见度10公里或以上
少量云层高于2500英尺
散云层高于30000英尺

METAR: RPLL 190500Z 09010KT 060V130 9999 FEW025 SCT300 33/21 Q1011 NOSIG RMK A2985

时间: 13:23 (05:23 UTC)

预报

该预报发布于6小时和23分钟前的23:00 UTC
预报有效从19日的 00点(UTC)到 20日的 06点(UTC)
风速5节,风向
能见度10公里或以上
少量云层高于2500英尺
散云层高于30000英尺
短暂存在
从 19日的 00点(UTC)到 19日的 06点(UTC)
风速9节,风向东转东南
少量云层高于2300英尺
散云层高于10000英尺
短暂存在
从 19日的 06点(UTC)到 19日的 12点(UTC)
风速10节,风向
少量云层高于2200英尺, 积雨云.
少量云层高于2300英尺
多云层高于10000英尺

TAF: RPLL 182300Z 1900/2006 10005KT 9999 FEW025 SCT300 TX34/1906 TX26/1922Z TEMPO 1900/1906 11009KT FEW023 SCT100 TEMPO 1906/1912 09010KT FEW022CB FEW023 BKN100

超过4000个机场的气象观测和天气预报(METAR&TAF报告)。

可查询的气象台以黄色和红色小点在地图上表示。

将鼠标移到小点上方,可查看气象台名称。

然后点击查看天气观测和预报。

如需切换地图:点击带黑十字的绿色按钮放大地图;点击带横线的绿色按钮缩小地图;或者点击绿色箭头查看邻近地区的地图。


METAR-TAF: